Home > Products > Valid Products > TAF

000
FTUS45 KBOU 210526
TAFDEN
TAF
KDEN 210526Z 2106/2212 22009KT P6SM SCT080 BKN150
     FM212000 26015G25KT P6SM SCT100 BKN150
     FM220200 24011KT P6SM SCT080 BKN100 BKN150
     FM220900 36010G18KT P6SM VCSH SCT040 BKN060=



000
FTUS45 KBOU 210526
TAFDEN
TAF
KDEN 210526Z 2106/2212 22009KT P6SM SCT080 BKN150
     FM212000 26015G25KT P6SM SCT100 BKN150
     FM220200 24011KT P6SM SCT080 BKN100 BKN150
     FM220900 36010G18KT P6SM VCSH SCT040 BKN060=



000
FTUS45 KBOU 210526
TAFBJC
TAF
KBJC 210526Z 2106/2206 29011KT P6SM SCT080 SCT120 BKN200
     FM211000 26012G20KT P6SM SCT080 SCT120 BKN200
     FM211700 27018G28KT P6SM SCT090 BKN120
     FM212000 29022G32KT P6SM SCT090 BKN120
     FM220100 25011KT P6SM SCT080 BKN100 BKN150=



000
FTUS45 KBOU 210526
TAFAPA
TAF
KAPA 210526Z 2106/2206 25006KT P6SM SCT090 BKN150
     FM212200 27014G22KT P6SM SCT100 BKN150
     FM220200 24011KT P6SM SCT080 BKN100 BKN150=



000
FTUS45 KBOU 210526
TAFAPA
TAF
KAPA 210526Z 2106/2206 25006KT P6SM SCT090 BKN150
     FM212200 27014G22KT P6SM SCT100 BKN150
     FM220200 24011KT P6SM SCT080 BKN100 BKN150=



000
FTUS45 KBOU 210526
TAFBJC
TAF
KBJC 210526Z 2106/2206 29011KT P6SM SCT080 SCT120 BKN200
     FM211000 26012G20KT P6SM SCT080 SCT120 BKN200
     FM211700 27018G28KT P6SM SCT090 BKN120
     FM212000 29022G32KT P6SM SCT090 BKN120
     FM220100 25011KT P6SM SCT080 BKN100 BKN150=



000
FTUS45 KBOU 210443 AAB
TAFDEN
TAF AMD
KDEN 210443Z 2105/2206 21009KT P6SM SCT080 BKN150
     FM212000 26012G22KT P6SM SCT100 BKN150
     FM220200 22008KT P6SM BKN100 BKN150=



000
FTUS45 KBOU 210443 AAB
TAFDEN
TAF AMD
KDEN 210443Z 2105/2206 21009KT P6SM SCT080 BKN150
     FM212000 26012G22KT P6SM SCT100 BKN150
     FM220200 22008KT P6SM BKN100 BKN150=



000
FTUS45 KBOU 210443 AAA
TAFAPA
TAF AMD
KAPA 210443Z 2105/2124 19006KT P6SM SCT090 BKN150
     FM211900 25009KT P6SM SCT090 BKN150
     FM212200 27012G20KT P6SM SCT100 BKN150=



000
FTUS45 KBOU 210443 AAA
TAFBJC
TAF AMD
KBJC 210443Z 2105/2124 28012G20KT P6SM SCT080 SCT120 BKN200
     FM211700 27018G28KT P6SM SCT090 BKN120
     FM212000 29022G32KT P6SM SCT090 BKN120=



000
FTUS45 KBOU 210443 AAA
TAFBJC
TAF AMD
KBJC 210443Z 2105/2124 28012G20KT P6SM SCT080 SCT120 BKN200
     FM211700 27018G28KT P6SM SCT090 BKN120
     FM212000 29022G32KT P6SM SCT090 BKN120=



000
FTUS45 KBOU 210443 AAA
TAFBJC
TAF AMD
KBJC 210443Z 2105/2124 28012G20KT P6SM SCT080 SCT120 BKN200
     FM211700 27018G28KT P6SM SCT090 BKN120
     FM212000 29022G32KT P6SM SCT090 BKN120=



000
FTUS45 KBOU 210443 AAA
TAFAPA
TAF AMD
KAPA 210443Z 2105/2124 19006KT P6SM SCT090 BKN150
     FM211900 25009KT P6SM SCT090 BKN150
     FM212200 27012G20KT P6SM SCT100 BKN150=



000
FTUS45 KBOU 210443 AAB
TAFDEN
TAF AMD
KDEN 210443Z 2105/2206 21009KT P6SM SCT080 BKN150
     FM212000 26012G22KT P6SM SCT100 BKN150
     FM220200 22008KT P6SM BKN100 BKN150=



000
FTUS45 KBOU 210443 AAB
TAFDEN
TAF AMD
KDEN 210443Z 2105/2206 21009KT P6SM SCT080 BKN150
     FM212000 26012G22KT P6SM SCT100 BKN150
     FM220200 22008KT P6SM BKN100 BKN150=



000
FTUS45 KBOU 210443 AAA
TAFAPA
TAF AMD
KAPA 210443Z 2105/2124 19006KT P6SM SCT090 BKN150
     FM211900 25009KT P6SM SCT090 BKN150
     FM212200 27012G20KT P6SM SCT100 BKN150=



000
FTUS45 KBOU 210443 AAA
TAFAPA
TAF AMD
KAPA 210443Z 2105/2124 19006KT P6SM SCT090 BKN150
     FM211900 25009KT P6SM SCT090 BKN150
     FM212200 27012G20KT P6SM SCT100 BKN150=



000
FTUS45 KBOU 210443 AAA
TAFBJC
TAF AMD
KBJC 210443Z 2105/2124 28012G20KT P6SM SCT080 SCT120 BKN200
     FM211700 27018G28KT P6SM SCT090 BKN120
     FM212000 29022G32KT P6SM SCT090 BKN120=



000
FTUS45 KBOU 210304 AAA
TAFDEN
TAF AMD
KDEN 210304Z 2103/2206 24007KT P6SM SCT060 BKN100
     FM210400 23007KT P6SM SCT060 BKN080
     FM210600 20009KT P6SM SCT080 BKN150
     FM212000 26012G20KT P6SM SCT100 BKN150
     FM220200 22008KT P6SM BKN100 BKN150=



000
FTUS45 KBOU 210304 AAA
TAFDEN
TAF AMD
KDEN 210304Z 2103/2206 24007KT P6SM SCT060 BKN100
     FM210400 23007KT P6SM SCT060 BKN080
     FM210600 20009KT P6SM SCT080 BKN150
     FM212000 26012G20KT P6SM SCT100 BKN150
     FM220200 22008KT P6SM BKN100 BKN150=



000
FTUS45 KBOU 202329
TAFAPA
TAF
KAPA 202329Z 2100/2124 10007KT P6SM FEW100 BKN200
     FM210200 19006KT P6SM SCT090 BKN150
     FM211900 25009KT P6SM SCT090 BKN150=



000
FTUS45 KBOU 202329
TAFBJC
TAF
KBJC 202329Z 2100/2124 VRB05KT P6SM SCT080 SCT120 BKN200
     FM210200 25005KT P6SM SCT090 BKN120
     FM211700 27012KT P6SM SCT090 BKN120=



000
FTUS45 KBOU 202329
TAFDEN
TAF
KDEN 202329Z 2100/2206 10010KT P6SM SCT120 BKN200
     FM210100 18008KT P6SM SCT060 BKN100
     FM210600 20009KT P6SM SCT100 BKN150
     FM211900 26012KT P6SM SCT100 BKN150
     FM220200 22008KT P6SM BKN100 BKN150=



000
FTUS45 KBOU 202329
TAFAPA
TAF
KAPA 202329Z 2100/2124 10007KT P6SM FEW100 BKN200
     FM210200 19006KT P6SM SCT090 BKN150
     FM211900 25009KT P6SM SCT090 BKN150=



000
FTUS45 KBOU 202329
TAFDEN
TAF
KDEN 202329Z 2100/2206 10010KT P6SM SCT120 BKN200
     FM210100 18008KT P6SM SCT060 BKN100
     FM210600 20009KT P6SM SCT100 BKN150
     FM211900 26012KT P6SM SCT100 BKN150
     FM220200 22008KT P6SM BKN100 BKN150=



000
FTUS45 KBOU 202329
TAFBJC
TAF
KBJC 202329Z 2100/2124 VRB05KT P6SM SCT080 SCT120 BKN200
     FM210200 25005KT P6SM SCT090 BKN120
     FM211700 27012KT P6SM SCT090 BKN120=



000
FTUS45 KBOU 202300 AAB
TAFBJC
TAF AMD
KBJC 202300Z 2023/2118 VRB05KT P6SM SCT080 SCT120 BKN200
     FM210200 25005KT P6SM SCT090 BKN120
     FM211700 27012KT P6SM SCT090 BKN120=



000
FTUS45 KBOU 202300 AAB
TAFBJC
TAF AMD
KBJC 202300Z 2023/2118 VRB05KT P6SM SCT080 SCT120 BKN200
     FM210200 25005KT P6SM SCT090 BKN120
     FM211700 27012KT P6SM SCT090 BKN120=



000
FTUS45 KBOU 202217 AAC
TAFDEN
TAF AMD
KDEN 202217Z 2022/2124 07007KT P6SM SCT120 BKN200
     FM210100 18008KT P6SM SCT060 BKN100
     FM210600 20009KT P6SM SCT100 BKN150
     FM211800 27012KT P6SM SCT100 BKN150=



000
FTUS45 KBOU 202217 AAC
TAFDEN
TAF AMD
KDEN 202217Z 2022/2124 07007KT P6SM SCT120 BKN200
     FM210100 18008KT P6SM SCT060 BKN100
     FM210600 20009KT P6SM SCT100 BKN150
     FM211800 27012KT P6SM SCT100 BKN150=



000
FTUS45 KBOU 202144 AAA
TAFBJC
TAF AMD
KBJC 202144Z 2022/2118 32012G20KT P6SM SCT080 SCT120 BKN200
     FM210200 25005KT P6SM SCT090 BKN120
     FM211700 27012KT P6SM SCT090 BKN120=



000
FTUS45 KBOU 202144 AAA
TAFBJC
TAF AMD
KBJC 202144Z 2022/2118 32012G20KT P6SM SCT080 SCT120 BKN200
     FM210200 25005KT P6SM SCT090 BKN120
     FM211700 27012KT P6SM SCT090 BKN120=



000
FTUS45 KBOU 202101 AAB
TAFDEN
TAF AMD
KDEN 202101Z 2021/2124 VRB05KT P6SM SCT120 BKN200
     FM210200 18009KT P6SM SCT060 BKN100
     FM210600 20009KT P6SM SCT100 BKN150
     FM211800 27012KT P6SM SCT100 BKN150=



000
FTUS45 KBOU 202101 AAB
TAFDEN
TAF AMD
KDEN 202101Z 2021/2124 VRB05KT P6SM SCT120 BKN200
     FM210200 18009KT P6SM SCT060 BKN100
     FM210600 20009KT P6SM SCT100 BKN150
     FM211800 27012KT P6SM SCT100 BKN150=



000
FTUS45 KBOU 201919 AAA
TAFAPA
TAF AMD
KAPA 201919Z 2019/2118 32005KT P6SM FEW070 SCT110 BKN200
     FM202100 VRB05KT P6SM FEW100 BKN200
     FM210200 19006KT P6SM SCT090 BKN120=



000
FTUS45 KBOU 201919 AAA
TAFAPA
TAF AMD
KAPA 201919Z 2019/2118 32005KT P6SM FEW070 SCT110 BKN200
     FM202100 VRB05KT P6SM FEW100 BKN200
     FM210200 19006KT P6SM SCT090 BKN120=



000
FTUS45 KBOU 201918 AAA
TAFDEN
TAF AMD
KDEN 201918Z 2019/2124 30008KT P6SM FEW070 SCT120 BKN200
     FM202100 VRB05KT P6SM SCT120 BKN200
     FM210200 18009KT P6SM SCT060 BKN100
     FM210600 20009KT P6SM SCT100 BKN150=



000
FTUS45 KBOU 201918 AAA
TAFDEN
TAF AMD
KDEN 201918Z 2019/2124 30008KT P6SM FEW070 SCT120 BKN200
     FM202100 VRB05KT P6SM SCT120 BKN200
     FM210200 18009KT P6SM SCT060 BKN100
     FM210600 20009KT P6SM SCT100 BKN150=



000
FTUS45 KBOU 201733
TAFDEN
TAF
KDEN 201733Z 2018/2124 36006KT P6SM SCT070 BKN100 BKN200
     FM202000 05005KT P6SM SCT100 BKN140
     FM210000 15009KT P6SM SCT080 BKN140
     FM210200 18009KT P6SM SCT060 BKN100
     FM210600 20009KT P6SM SCT100 BKN150=



000
FTUS45 KBOU 201733
TAFBJC
TAF
KBJC 201733Z 2018/2118 VRB03KT P6SM SCT070 BKN100 BKN200
     FM201900 VRB03KT P6SM FEW070 BKN110 BKN200
     FM202100 VRB03KT P6SM SCT100 BKN140
     FM210200 25005KT P6SM SCT090 BKN120=



000
FTUS45 KBOU 201733
TAFAPA
TAF
KAPA 201733Z 2018/2118 VRB06KT P6SM SCT070 BKN100 BKN200
     FM201900 03005KT P6SM FEW070 BKN110 BKN200
     FM202100 VRB05KT P6SM SCT100 BKN140
     FM210200 19006KT P6SM SCT090 BKN120=



000
FTUS45 KBOU 201733
TAFBJC
TAF
KBJC 201733Z 2018/2118 VRB03KT P6SM SCT070 BKN100 BKN200
     FM201900 VRB03KT P6SM FEW070 BKN110 BKN200
     FM202100 VRB03KT P6SM SCT100 BKN140
     FM210200 25005KT P6SM SCT090 BKN120=



000
FTUS45 KBOU 201733
TAFDEN
TAF
KDEN 201733Z 2018/2124 36006KT P6SM SCT070 BKN100 BKN200
     FM202000 05005KT P6SM SCT100 BKN140
     FM210000 15009KT P6SM SCT080 BKN140
     FM210200 18009KT P6SM SCT060 BKN100
     FM210600 20009KT P6SM SCT100 BKN150=



000
FTUS45 KBOU 201733
TAFAPA
TAF
KAPA 201733Z 2018/2118 VRB06KT P6SM SCT070 BKN100 BKN200
     FM201900 03005KT P6SM FEW070 BKN110 BKN200
     FM202100 VRB05KT P6SM SCT100 BKN140
     FM210200 19006KT P6SM SCT090 BKN120=



000
FTUS45 KBOU 201500 AAA
TAFDEN
TAF AMD
KDEN 201500Z 2015/2118 20010KT P6SM FEW100 BKN140 BKN220
     FM201700 VRB05KT P6SM FEW140 BKN220
     FM202000 15009KT P6SM SCT090 BKN140
     FM210200 20009KT P6SM SCT090 BKN140=



000
FTUS45 KBOU 201500 AAA
TAFDEN
TAF AMD
KDEN 201500Z 2015/2118 20010KT P6SM FEW100 BKN140 BKN220
     FM201700 VRB05KT P6SM FEW140 BKN220
     FM202000 15009KT P6SM SCT090 BKN140
     FM210200 20009KT P6SM SCT090 BKN140=



000
FTUS45 KBOU 201129
TAFBJC
TAF
KBJC 201129Z 2012/2112 26005KT P6SM FEW110 BKN220
     FM202000 31005KT P6SM SCT090 BKN140
     FM210800 27010KT P6SM SCT090 BKN140=



000
FTUS45 KBOU 201129
TAFBJC
TAF
KBJC 201129Z 2012/2112 26005KT P6SM FEW110 BKN220
     FM202000 31005KT P6SM SCT090 BKN140
     FM210800 27010KT P6SM SCT090 BKN140=



000
FTUS45 KBOU 201129
TAFAPA
TAF
KAPA 201129Z 2012/2112 19006KT P6SM FEW110 BKN220
     FM202000 13005KT P6SM SCT090 BKN140
     FM210200 20006KT P6SM SCT090 BKN140=



000
FTUS45 KBOU 201129
TAFDEN
TAF
KDEN 201129Z 2012/2118 20010KT P6SM FEW110 BKN220
     FM202000 14007KT P6SM SCT090 BKN140
     FM210200 20009KT P6SM SCT090 BKN140=



000
FTUS45 KBOU 201129
TAFDEN
TAF
KDEN 201129Z 2012/2118 20010KT P6SM FEW110 BKN220
     FM202000 14007KT P6SM SCT090 BKN140
     FM210200 20009KT P6SM SCT090 BKN140=



000
FTUS45 KBOU 201129
TAFAPA
TAF
KAPA 201129Z 2012/2112 19006KT P6SM FEW110 BKN220
     FM202000 13005KT P6SM SCT090 BKN140
     FM210200 20006KT P6SM SCT090 BKN140=



000
FTUS45 KBOU 200856 AAA
TAFDEN
TAF AMD
KDEN 200856Z 2009/2112 20010KT P6SM FEW120 SCT220
     FM202000 16007KT P6SM SCT110 BKN170
     FM210200 19008KT P6SM SCT110 BKN170=



000
FTUS45 KBOU 200856 AAA
TAFDEN
TAF AMD
KDEN 200856Z 2009/2112 20010KT P6SM FEW120 SCT220
     FM202000 16007KT P6SM SCT110 BKN170
     FM210200 19008KT P6SM SCT110 BKN170=



000
FTUS45 KBOU 200522
TAFDEN
TAF
KDEN 200522Z 2006/2112 20010KT P6SM FEW120 SCT220
     FM202000 16007KT P6SM SCT110 BKN170
     FM210200 19008KT P6SM SCT110 BKN170=



000
FTUS45 KBOU 200522
TAFAPA
TAF
KAPA 200522Z 2006/2106 19006KT P6SM FEW120 BKN200
     FM202000 15005KT P6SM SCT100 BKN170
     FM210200 19006KT P6SM SCT110 BKN170=



000
FTUS45 KBOU 200522
TAFDEN
TAF
KDEN 200522Z 2006/2112 20010KT P6SM FEW120 SCT220
     FM202000 16007KT P6SM SCT110 BKN170
     FM210200 19008KT P6SM SCT110 BKN170=



000
FTUS45 KBOU 200522
TAFBJC
TAF
KBJC 200522Z 2006/2106 24006KT P6SM SCT120 BKN200
     FM201500 28005KT P6SM SCT120 BKN200=



000
FTUS45 KBOU 200522
TAFBJC
TAF
KBJC 200522Z 2006/2106 24006KT P6SM SCT120 BKN200
     FM201500 28005KT P6SM SCT120 BKN200=



000
FTUS45 KBOU 200522
TAFAPA
TAF
KAPA 200522Z 2006/2106 19006KT P6SM FEW120 BKN200
     FM202000 15005KT P6SM SCT100 BKN170
     FM210200 19006KT P6SM SCT110 BKN170=



000
FTUS45 KBOU 200251 AAB
TAFDEN
TAF AMD
KDEN 200251Z 2003/2106 19011KT P6SM FEW120 BKN220
     FM202000 16007KT P6SM SCT110 BKN170
     FM210200 19008KT P6SM SCT110 BKN170=



000
FTUS45 KBOU 200251 AAB
TAFDEN
TAF AMD
KDEN 200251Z 2003/2106 19011KT P6SM FEW120 BKN220
     FM202000 16007KT P6SM SCT110 BKN170
     FM210200 19008KT P6SM SCT110 BKN170=



000
FTUS45 KBOU 200103 AAA
TAFDEN
TAF AMD
KDEN 200103Z 2001/2106 19011KT P6SM FEW120 BKN220
     FM202000 16007KT P6SM SCT110 BKN170=



000
FTUS45 KBOU 200103 AAA
TAFDEN
TAF AMD
KDEN 200103Z 2001/2106 19011KT P6SM FEW120 BKN220
     FM202000 16007KT P6SM SCT110 BKN170=



000
FTUS45 KBOU 192326
TAFBJC
TAF
KBJC 192326Z 2000/2024 27010KT P6SM SCT120 BKN200
     FM200300 24006KT P6SM SCT120 BKN200
     FM201500 VRB05KT P6SM SCT120 BKN200=



000
FTUS45 KBOU 192326
TAFDEN
TAF
KDEN 192326Z 2000/2106 16009KT P6SM FEW120 BKN220
     FM200300 20009KT P6SM FEW120 BKN200
     FM202000 16007KT P6SM SCT110 BKN170=



000
FTUS45 KBOU 192326
TAFAPA
TAF
KAPA 192326Z 2000/2024 16006KT P6SM FEW120 BKN220
     FM200200 19007KT P6SM FEW120 BKN200
     FM202000 16006KT P6SM SCT100 BKN170=



000
FTUS45 KBOU 192326
TAFDEN
TAF
KDEN 192326Z 2000/2106 16009KT P6SM FEW120 BKN220
     FM200300 20009KT P6SM FEW120 BKN200
     FM202000 16007KT P6SM SCT110 BKN170=



000
FTUS45 KBOU 192326
TAFAPA
TAF
KAPA 192326Z 2000/2024 16006KT P6SM FEW120 BKN220
     FM200200 19007KT P6SM FEW120 BKN200
     FM202000 16006KT P6SM SCT100 BKN170=



000
FTUS45 KBOU 192326
TAFBJC
TAF
KBJC 192326Z 2000/2024 27010KT P6SM SCT120 BKN200
     FM200300 24006KT P6SM SCT120 BKN200
     FM201500 VRB05KT P6SM SCT120 BKN200=



000
FTUS45 KBOU 192204 AAA
TAFBJC
TAF AMD
KBJC 192204Z 1922/2018 27008KT P6SM FEW080 FEW120
     FM200300 24006KT P6SM FEW150 SCT200
     FM201400 30007KT P6SM FEW120 SCT200=



000
FTUS45 KBOU 192204 AAA
TAFBJC
TAF AMD
KBJC 192204Z 1922/2018 27008KT P6SM FEW080 FEW120
     FM200300 24006KT P6SM FEW150 SCT200
     FM201400 30007KT P6SM FEW120 SCT200=



000
FTUS45 KBOU 192057 AAA
TAFDEN
TAF AMD
KDEN 192057Z 1921/2024 15007KT P6SM FEW080 FEW120
     FM200200 20007KT P6SM FEW150 SCT200
     FM201400 21008KT P6SM FEW120 SCT200
     FM201900 29007KT P6SM SCT120 SCT200=



000
FTUS45 KBOU 192057 AAA
TAFDEN
TAF AMD
KDEN 192057Z 1921/2024 15007KT P6SM FEW080 FEW120
     FM200200 20007KT P6SM FEW150 SCT200
     FM201400 21008KT P6SM FEW120 SCT200
     FM201900 29007KT P6SM SCT120 SCT200=



000
FTUS45 KBOU 191731
TAFAPA
TAF
KAPA 191731Z 1918/2018 VRB04KT P6SM FEW080 FEW120
     FM192000 15006KT P6SM FEW080 FEW120
     FM200100 19006KT P6SM FEW150 SCT200
     FM201400 21007KT P6SM FEW120 SCT200=



000
FTUS45 KBOU 191731
TAFBJC
TAF
KBJC 191731Z 1918/2018 VRB04KT P6SM FEW080 FEW120
     FM192000 15006KT P6SM FEW080 FEW120
     FM200100 27006KT P6SM FEW150 SCT200
     FM201400 30007KT P6SM FEW120 SCT200=



000
FTUS45 KBOU 191731
TAFBJC
TAF
KBJC 191731Z 1918/2018 VRB04KT P6SM FEW080 FEW120
     FM192000 15006KT P6SM FEW080 FEW120
     FM200100 27006KT P6SM FEW150 SCT200
     FM201400 30007KT P6SM FEW120 SCT200=



000
FTUS45 KBOU 191731
TAFAPA
TAF
KAPA 191731Z 1918/2018 VRB04KT P6SM FEW080 FEW120
     FM192000 15006KT P6SM FEW080 FEW120
     FM200100 19006KT P6SM FEW150 SCT200
     FM201400 21007KT P6SM FEW120 SCT200=



000
FTUS45 KBOU 191731
TAFDEN
TAF
KDEN 191731Z 1918/2024 18008KT P6SM FEW080 FEW120
     FM192000 16007KT P6SM FEW080 FEW120
     FM200100 20007KT P6SM FEW150 SCT200
     FM201400 21008KT P6SM FEW120 SCT200
     FM201900 29007KT P6SM SCT120 SCT200=



000
FTUS45 KBOU 191731
TAFDEN
TAF
KDEN 191731Z 1918/2024 18008KT P6SM FEW080 FEW120
     FM192000 16007KT P6SM FEW080 FEW120
     FM200100 20007KT P6SM FEW150 SCT200
     FM201400 21008KT P6SM FEW120 SCT200
     FM201900 29007KT P6SM SCT120 SCT200=



000
FTUS45 KBOU 191438 AAA
TAFBJC
TAF AMD
KBJC 191438Z 1915/2012 VRB03KT P6SM FEW120 SCT200
     FM191600 VRB05KT P6SM FEW150 FEW220
     FM200200 27006KT P6SM FEW150 SCT200=



000
FTUS45 KBOU 191438 AAA
TAFDEN
TAF AMD
KDEN 191438Z 1915/2018 22006KT P6SM FEW100 SCT200
     FM192000 17006KT P6SM FEW150 FEW220
     FM200300 20007KT P6SM FEW150 SCT200
     FM201400 21008KT P6SM SCT120 SCT200=



000
FTUS45 KBOU 191438 AAA
TAFDEN
TAF AMD
KDEN 191438Z 1915/2018 22006KT P6SM FEW100 SCT200
     FM192000 17006KT P6SM FEW150 FEW220
     FM200300 20007KT P6SM FEW150 SCT200
     FM201400 21008KT P6SM SCT120 SCT200=



000
FTUS45 KBOU 191129
TAFDEN
TAF
KDEN 191129Z 1912/2018 22006KT 4SM BR FEW100 SCT200
     FM191500 24006KT P6SM FEW150
     FM192000 17006KT P6SM FEW150 FEW220
     FM200300 20007KT P6SM FEW150 SCT200
     FM201400 21008KT P6SM SCT120 SCT200=



000
FTUS45 KBOU 191129
TAFBJC
TAF
KBJC 191129Z 1912/2012 27005KT 5SM BR FEW200
     FM191600 VRB05KT P6SM FEW150 FEW220
     FM200200 27006KT P6SM FEW150 SCT200=



000
FTUS45 KBOU 191129
TAFAPA
TAF
KAPA 191129Z 1912/2012 20006KT P6SM FEW080 FEW180
     FM191500 24005KT P6SM FEW180
     FM192000 13006KT P6SM FEW150 FEW220
     FM200200 20006KT P6SM FEW150 SCT200=



000
FTUS45 KBOU 191129
TAFAPA
TAF
KAPA 191129Z 1912/2012 20006KT P6SM FEW080 FEW180
     FM191500 24005KT P6SM FEW180
     FM192000 13006KT P6SM FEW150 FEW220
     FM200200 20006KT P6SM FEW150 SCT200=



000
FTUS45 KBOU 191129
TAFBJC
TAF
KBJC 191129Z 1912/2012 27005KT 5SM BR FEW200
     FM191600 VRB05KT P6SM FEW150 FEW220
     FM200200 27006KT P6SM FEW150 SCT200=



000
FTUS45 KBOU 190903 AAA
TAFDEN
TAF AMD
KDEN 190903Z 1909/2012 22006KT 6SM BR FEW100 SCT200
     FM191400 24006KT P6SM FEW150
     FM191800 17006KT P6SM FEW150 FEW220
     FM200200 20007KT P6SM FEW150 SCT200=



000
FTUS45 KBOU 190903 AAA
TAFDEN
TAF AMD
KDEN 190903Z 1909/2012 22006KT 6SM BR FEW100 SCT200
     FM191400 24006KT P6SM FEW150
     FM191800 17006KT P6SM FEW150 FEW220
     FM200200 20007KT P6SM FEW150 SCT200=



000
FTUS45 KBOU 190529
TAFBJC
TAF
KBJC 190529Z 1906/2006 VRB04KT P6SM SCT080 BKN200
     FM190700 27005KT P6SM FEW150
     FM191900 04005KT P6SM FEW150 FEW220
     FM200200 27006KT P6SM FEW150 SCT200=



000
FTUS45 KBOU 190529
TAFDEN
TAF
KDEN 190529Z 1906/2012 21005KT P6SM FEW050 SCT080 BKN100
     FM190700 21007KT P6SM FEW100 FEW200
     FM191400 24006KT P6SM FEW150
     FM191800 17006KT P6SM FEW150 FEW220
     FM200200 20007KT P6SM FEW150 SCT200=



000
FTUS45 KBOU 190529
TAFAPA
TAF
KAPA 190529Z 1906/2006 19004KT 6SM BR SCT090 BKN140
     FM190800 20006KT P6SM SCT150
     FM191400 24004KT P6SM FEW150
     FM191900 17006KT P6SM FEW150 FEW220
     FM200200 20006KT P6SM FEW150 SCT200=



000
FTUS45 KBOU 190529
TAFBJC
TAF
KBJC 190529Z 1906/2006 VRB04KT P6SM SCT080 BKN200
     FM190700 27005KT P6SM FEW150
     FM191900 04005KT P6SM FEW150 FEW220
     FM200200 27006KT P6SM FEW150 SCT200=



000
FTUS45 KBOU 190529
TAFDEN
TAF
KDEN 190529Z 1906/2012 21005KT P6SM FEW050 SCT080 BKN100
     FM190700 21007KT P6SM FEW100 FEW200
     FM191400 24006KT P6SM FEW150
     FM191800 17006KT P6SM FEW150 FEW220
     FM200200 20007KT P6SM FEW150 SCT200=



000
FTUS45 KBOU 190529
TAFAPA
TAF
KAPA 190529Z 1906/2006 19004KT 6SM BR SCT090 BKN140
     FM190800 20006KT P6SM SCT150
     FM191400 24004KT P6SM FEW150
     FM191900 17006KT P6SM FEW150 FEW220
     FM200200 20006KT P6SM FEW150 SCT200=



000
FTUS45 KBOU 190254 AAB
TAFDEN
TAF AMD
KDEN 190254Z 1903/2006 18005KT P6SM SCT100 BKN180
     FM190700 20007KT P6SM FEW110 FEW200
     FM191400 24006KT P6SM FEW150
     FM191900 15006KT P6SM FEW150 FEW220
     FM200200 18007KT P6SM FEW150 SCT200=



000
FTUS45 KBOU 190254 AAB
TAFDEN
TAF AMD
KDEN 190254Z 1903/2006 18005KT P6SM SCT100 BKN180
     FM190700 20007KT P6SM FEW110 FEW200
     FM191400 24006KT P6SM FEW150
     FM191900 15006KT P6SM FEW150 FEW220
     FM200200 18007KT P6SM FEW150 SCT200=



000
FTUS45 KBOU 190159 AAA
TAFAPA
TAF AMD
KAPA 190159Z 1902/1924 04003KT P6SM BKN080 OVC100
     FM190400 16005KT P6SM SCT080 BKN120
     FM190700 20005KT P6SM SCT150
     FM191400 24006KT P6SM FEW150
     FM191900 14006KT P6SM FEW150 FEW220=



000
FTUS45 KBOU 190159 AAA
TAFAPA
TAF AMD
KAPA 190159Z 1902/1924 04003KT P6SM BKN080 OVC100
     FM190400 16005KT P6SM SCT080 BKN120
     FM190700 20005KT P6SM SCT150
     FM191400 24006KT P6SM FEW150
     FM191900 14006KT P6SM FEW150 FEW220=



000
FTUS45 KBOU 190159 AAA
TAFAPA
TAF AMD
KAPA 190159Z 1902/1924 04003KT P6SM BKN080 OVC100
     FM190400 16005KT P6SM SCT080 BKN120
     FM190700 20005KT P6SM SCT150
     FM191400 24006KT P6SM FEW150
     FM191900 14006KT P6SM FEW150 FEW220=



000
FTUS45 KBOU 190159 AAA
TAFAPA
TAF AMD
KAPA 190159Z 1902/1924 04003KT P6SM BKN080 OVC100
     FM190400 16005KT P6SM SCT080 BKN120
     FM190700 20005KT P6SM SCT150
     FM191400 24006KT P6SM FEW150
     FM191900 14006KT P6SM FEW150 FEW220=



000
FTUS45 KBOU 190152 AAA
TAFDEN
TAF AMD
KDEN 190152Z 1902/2006 10006KT P6SM SCT080 BKN110
     FM190300 14006KT P6SM SCT100 BKN150
     FM190700 20007KT P6SM FEW110 FEW200
     FM191400 24006KT P6SM FEW150
     FM191900 15006KT P6SM FEW150 FEW220
     FM200200 18007KT P6SM FEW150 SCT200=



000
FTUS45 KBOU 190152 AAA
TAFDEN
TAF AMD
KDEN 190152Z 1902/2006 10006KT P6SM SCT080 BKN110
     FM190300 14006KT P6SM SCT100 BKN150
     FM190700 20007KT P6SM FEW110 FEW200
     FM191400 24006KT P6SM FEW150
     FM191900 15006KT P6SM FEW150 FEW220
     FM200200 18007KT P6SM FEW150 SCT200=



000
FTUS45 KBOU 190152 AAA
TAFDEN
TAF AMD
KDEN 190152Z 1902/2006 10006KT P6SM SCT080 BKN110
     FM190300 14006KT P6SM SCT100 BKN150
     FM190700 20007KT P6SM FEW110 FEW200
     FM191400 24006KT P6SM FEW150
     FM191900 15006KT P6SM FEW150 FEW220
     FM200200 18007KT P6SM FEW150 SCT200=



000
FTUS45 KBOU 182339
TAFAPA
TAF
KAPA 182339Z 1900/1924 35008KT P6SM FEW110 FEW200
     FM190300 16006KT P6SM SCT090 SCT200
     FM190700 19007KT P6SM FEW150
     FM191400 24006KT P6SM FEW150
     FM191900 14006KT P6SM FEW150 FEW220=



000
FTUS45 KBOU 182339
TAFAPA
TAF
KAPA 182339Z 1900/1924 35008KT P6SM FEW110 FEW200
     FM190300 16006KT P6SM SCT090 SCT200
     FM190700 19007KT P6SM FEW150
     FM191400 24006KT P6SM FEW150
     FM191900 14006KT P6SM FEW150 FEW220=



000
FTUS45 KBOU 182339
TAFBJC
TAF
KBJC 182339Z 1900/1924 VRB04KT P6SM SCT120 BKN220
     FM190300 VRB04KT P6SM SCT080 SCT200
     FM190700 27005KT P6SM FEW150
     FM191900 04005KT P6SM FEW150 FEW220=



000
FTUS45 KBOU 182339
TAFDEN
TAF
KDEN 182339Z 1900/2006 03007KT P6SM FEW110 FEW200
     FM190300 14007KT P6SM SCT090 SCT200
     FM190700 20007KT P6SM FEW110 FEW200
     FM191400 24006KT P6SM FEW150
     FM191900 15006KT P6SM FEW150 FEW220
     FM200200 18007KT P6SM FEW150 SCT200=



000
FTUS45 KBOU 182104 AAA
TAFDEN
TAF AMD
KDEN 182104Z 1821/1924 10004KT P6SM FEW070 SCT220
     FM190000 15006KT P6SM SCT070 BKN130
     FM190300 20007KT P6SM SCT080 SCT150
     FM191400 24006KT P6SM FEW150
     FM191900 15006KT P6SM FEW150 SCT220=



000
FTUS45 KBOU 181722
TAFDEN
TAF
KDEN 181722Z 1818/1924 23005KT P6SM FEW070 SCT130 BKN220
     FM182100 11006KT P6SM SCT070 BKN130
     FM190100 17006KT P6SM SCT070 BKN130
     FM190300 20007KT P6SM SCT080 SCT150
     FM191400 24006KT P6SM FEW150
     FM191900 15006KT P6SM FEW150 SCT220=



000
FTUS45 KBOU 181722
TAFAPA
TAF
KAPA 181722Z 1818/1918 23005KT P6SM FEW100 SCT140 BKN220
     FM182100 11006KT P6SM SCT070 BKN130
     FM190100 17006KT P6SM SCT070 BKN130
     FM190300 19007KT P6SM SCT080 SCT150
     FM191400 24006KT P6SM FEW150=



000
FTUS45 KBOU 181722
TAFBJC
TAF
KBJC 181722Z 1818/1918 VRB04KT P6SM FEW070 SCT120 BKN220
     FM182100 09005KT P6SM SCT070 BKN120
     FM190300 VRB04KT P6SM SCT080 SCT150
     FM191400 26005KT P6SM FEW150=



000
FTUS45 KBOU 181722
TAFBJC
TAF
KBJC 181722Z 1818/1918 VRB04KT P6SM FEW070 SCT120 BKN220
     FM182100 09005KT P6SM SCT070 BKN120
     FM190300 VRB04KT P6SM SCT080 SCT150
     FM191400 26005KT P6SM FEW150=



000
FTUS45 KBOU 181722
TAFDEN
TAF
KDEN 181722Z 1818/1924 23005KT P6SM FEW070 SCT130 BKN220
     FM182100 11006KT P6SM SCT070 BKN130
     FM190100 17006KT P6SM SCT070 BKN130
     FM190300 20007KT P6SM SCT080 SCT150
     FM191400 24006KT P6SM FEW150
     FM191900 15006KT P6SM FEW150 SCT220=



000
FTUS45 KBOU 181722
TAFAPA
TAF
KAPA 181722Z 1818/1918 23005KT P6SM FEW100 SCT140 BKN220
     FM182100 11006KT P6SM SCT070 BKN130
     FM190100 17006KT P6SM SCT070 BKN130
     FM190300 19007KT P6SM SCT080 SCT150
     FM191400 24006KT P6SM FEW150=



000
FTUS45 KBOU 181705 AAC
TAFDEN
TAF AMD
KDEN 181705Z 1817/1918 VRB05KT P6SM SCT070 BKN130 BKN220
     FM182200 11006KT P6SM BKN070 OVC130
     FM190500 20007KT P6SM SCT080 SCT150
     FM191400 21006KT P6SM FEW150=



000
FTUS45 KBOU 181705 AAC
TAFDEN
TAF AMD
KDEN 181705Z 1817/1918 VRB05KT P6SM SCT070 BKN130 BKN220
     FM182200 11006KT P6SM BKN070 OVC130
     FM190500 20007KT P6SM SCT080 SCT150
     FM191400 21006KT P6SM FEW150=



000
FTUS45 KBOU 181500 AAB
TAFDEN
TAF AMD
KDEN 181500Z 1815/1918 VRB04KT P6SM SCT070 SCT130 BKN220
      TEMPO 1815/1817 5SM BR
     FM181700 VRB05KT P6SM SCT070 BKN130
     FM182200 11006KT P6SM BKN060 OVC100
     FM190500 20007KT P6SM SCT080 SCT150
     FM191400 21006KT P6SM FEW150=



000
FTUS45 KBOU 181500 AAB
TAFDEN
TAF AMD
KDEN 181500Z 1815/1918 VRB04KT P6SM SCT070 SCT130 BKN220
      TEMPO 1815/1817 5SM BR
     FM181700 VRB05KT P6SM SCT070 BKN130
     FM182200 11006KT P6SM BKN060 OVC100
     FM190500 20007KT P6SM SCT080 SCT150
     FM191400 21006KT P6SM FEW150=



000
FTUS45 KBOU 181410 AAA
TAFDEN
TAF AMD
KDEN 181410Z 1814/1918 VRB04KT P6SM VCFG SCT070 SCT130 BKN170
     FM181500 VRB05KT P6SM SCT070 BKN130
     FM182200 11006KT P6SM BKN060 OVC100
     FM190500 20007KT P6SM SCT080 SCT150
     FM191400 21006KT P6SM FEW150=



000
FTUS45 KBOU 181410 AAA
TAFDEN
TAF AMD
KDEN 181410Z 1814/1918 VRB04KT P6SM VCFG SCT070 SCT130 BKN170
     FM181500 VRB05KT P6SM SCT070 BKN130
     FM182200 11006KT P6SM BKN060 OVC100
     FM190500 20007KT P6SM SCT080 SCT150
     FM191400 21006KT P6SM FEW150=



000
FTUS45 KBOU 181410 AAA
TAFDEN
TAF AMD
KDEN 181410Z 1814/1918 VRB04KT P6SM VCFG SCT070 SCT130 BKN170
     FM181500 VRB05KT P6SM SCT070 BKN130
     FM182200 11006KT P6SM BKN060 OVC100
     FM190500 20007KT P6SM SCT080 SCT150
     FM191400 21006KT P6SM FEW150=



000
FTUS45 KBOU 181410 AAA
TAFDEN
TAF AMD
KDEN 181410Z 1814/1918 VRB04KT P6SM VCFG SCT070 SCT130 BKN170
     FM181500 VRB05KT P6SM SCT070 BKN130
     FM182200 11006KT P6SM BKN060 OVC100
     FM190500 20007KT P6SM SCT080 SCT150
     FM191400 21006KT P6SM FEW150=



000
FTUS45 KBOU 181135
TAFDEN
TAF
KDEN 181135Z 1812/1918 23006KT P6SM SCT070 SCT150
     FM181500 VRB05KT P6SM SCT070 BKN140
     FM182200 11006KT P6SM BKN060 OVC100
     FM190500 20007KT P6SM SCT080 SCT150
     FM191400 21006KT P6SM FEW150=



000
FTUS45 KBOU 181135
TAFBJC
TAF
KBJC 181135Z 1812/1912 31003KT P6SM SCT070 SCT150
     FM181600 VRB05KT P6SM SCT070 BKN120
     FM182200 16005KT P6SM BKN060 OVC100
     FM190500 29007KT P6SM SCT080 SCT140=



000
FTUS45 KBOU 181135
TAFBJC
TAF
KBJC 181135Z 1812/1912 31003KT P6SM SCT070 SCT150
     FM181600 VRB05KT P6SM SCT070 BKN120
     FM182200 16005KT P6SM BKN060 OVC100
     FM190500 29007KT P6SM SCT080 SCT140=



000
FTUS45 KBOU 181135
TAFAPA
TAF
KAPA 181135Z 1812/1912 18005KT P6SM SCT050 SCT140
     FM181500 VRB05KT P6SM SCT070 BKN140
     FM182200 10005KT P6SM BKN060 OVC100
     FM190500 20007KT P6SM SCT080 SCT140=



000
FTUS45 KBOU 181135
TAFDEN
TAF
KDEN 181135Z 1812/1918 23006KT P6SM SCT070 SCT150
     FM181500 VRB05KT P6SM SCT070 BKN140
     FM182200 11006KT P6SM BKN060 OVC100
     FM190500 20007KT P6SM SCT080 SCT150
     FM191400 21006KT P6SM FEW150=



000
FTUS45 KBOU 181135
TAFAPA
TAF
KAPA 181135Z 1812/1912 18005KT P6SM SCT050 SCT140
     FM181500 VRB05KT P6SM SCT070 BKN140
     FM182200 10005KT P6SM BKN060 OVC100
     FM190500 20007KT P6SM SCT080 SCT140=



000
FTUS45 KBOU 180854 AAA
TAFDEN
TAF AMD
KDEN 180854Z 1809/1912 23006KT P6SM SCT070 BKN150
     FM181500 VRB05KT P6SM SCT070 BKN140
     FM182200 10005KT P6SM BKN060 OVC100=



000
FTUS45 KBOU 180854 AAA
TAFDEN
TAF AMD
KDEN 180854Z 1809/1912 23006KT P6SM SCT070 BKN150
     FM181500 VRB05KT P6SM SCT070 BKN140
     FM182200 10005KT P6SM BKN060 OVC100=



000
FTUS45 KBOU 180854 AAA
TAFDEN
TAF AMD
KDEN 180854Z 1809/1912 23006KT P6SM SCT070 BKN150
     FM181500 VRB05KT P6SM SCT070 BKN140
     FM182200 10005KT P6SM BKN060 OVC100=



000
FTUS45 KBOU 180854 AAA
TAFDEN
TAF AMD
KDEN 180854Z 1809/1912 23006KT P6SM SCT070 BKN150
     FM181500 VRB05KT P6SM SCT070 BKN140
     FM182200 10005KT P6SM BKN060 OVC100=



    US Dept of Commerce
    National Oceanic and Atmospheric Administration
    National Weather Service
    1325 East West Highway
    Silver Spring, MD 20910
    Page Author: NWS Internet Services Team
Disclaimer
Information Quality
Credits
Glossary
Privacy Policy
Freedom of Information Act (FOIA)
About Us
Career Opportunities